createdAt,value
2022-09-25T00:01:00.681Z,100959.22
2022-09-25T00:02:13.797Z,100968.94
2022-09-25T00:03:18.117Z,100964.56
2022-09-25T00:04:21.242Z,100962.06
2022-09-25T00:05:22.842Z,100966.56
2022-09-25T00:06:28.836Z,100959.53
2022-09-25T00:07:30.611Z,100956.16
2022-09-25T00:08:34.102Z,100957.16
2022-09-25T00:09:35.650Z,100959.13
2022-09-25T00:10:42.215Z,100950.28
2022-09-25T00:11:43.812Z,100959.25
2022-09-25T00:12:46.321Z,100963.75
2022-09-25T00:13:48.512Z,100964.59
2022-09-25T00:14:51.091Z,100961.25
2022-09-25T00:15:55.000Z,100960.41
2022-09-25T00:16:57.527Z,100955.06
2022-09-25T00:17:59.266Z,100962.09
2022-09-25T00:19:20.343Z,100956.75
2022-09-25T00:20:24.014Z,100964.91
2022-09-25T00:21:31.141Z,100960.69
2022-09-25T00:22:32.728Z,100958.03
2022-09-25T00:23:35.440Z,100959.56
2022-09-25T00:24:36.984Z,100960.41
2022-09-25T00:25:39.539Z,100956.03
2022-09-25T00:26:42.824Z,100962.38
2022-09-25T00:27:46.537Z,100960.69
2022-09-25T00:28:48.086Z,100954.50
2022-09-25T00:29:50.601Z,100952.81
2022-09-25T00:30:52.240Z,100948.31
2022-09-25T00:31:56.449Z,100958.16
2022-09-25T00:32:58.494Z,100954.50
2022-09-25T00:34:02.646Z,100953.66
2022-09-25T00:35:05.062Z,100946.38
2022-09-25T00:36:10.145Z,100947.34
2022-09-25T00:37:13.077Z,100953.66
2022-09-25T00:38:15.618Z,100948.31
2022-09-25T00:39:17.165Z,100942.97
2022-09-25T00:40:20.610Z,100954.50
2022-09-25T00:41:25.660Z,100947.47
2022-09-25T00:42:31.690Z,100948.56
2022-09-25T00:43:39.696Z,100945.22
2022-09-25T00:45:00.826Z,100948.88
2022-09-25T00:46:05.657Z,100957.56
2022-09-25T00:47:09.755Z,100954.22
2022-09-25T00:48:14.236Z,100953.53
2022-09-25T00:49:19.795Z,100951.66
2022-09-25T00:50:27.319Z,100958.88
2022-09-25T00:51:34.725Z,100961.53
2022-09-25T00:52:37.774Z,100952.81
2022-09-25T00:53:41.915Z,100961.84
2022-09-25T00:54:48.509Z,100952.13
2022-09-25T00:55:52.037Z,100955.66
2022-09-25T00:56:56.875Z,100963.50
2022-09-25T00:58:02.452Z,100960.81
2022-09-25T00:59:05.742Z,100962.53
2022-09-25T01:00:12.615Z,100965.19
2022-09-25T01:01:16.005Z,100967.69
2022-09-25T01:02:24.961Z,100961.53
2022-09-25T01:03:28.323Z,100963.38
2022-09-25T01:04:35.133Z,100966.03
2022-09-25T01:05:41.792Z,100968.84
2022-09-25T01:06:43.448Z,100961.84
2022-09-25T01:07:50.713Z,100972.66
2022-09-25T01:08:53.475Z,100963.78
2022-09-25T01:09:59.227Z,100964.63
2022-09-25T01:11:02.549Z,100968.00
2022-09-25T01:12:05.054Z,100969.69
2022-09-25T01:13:07.933Z,100962.66
2022-09-25T01:14:11.587Z,100960.81
2022-09-25T01:15:16.527Z,100968.84
2022-09-25T01:16:32.715Z,100966.03
2022-09-25T01:17:42.920Z,100960.81
2022-09-25T01:18:57.794Z,100966.16
2022-09-25T01:20:14.752Z,100961.84
2022-09-25T01:21:36.947Z,100960.97
2022-09-25T01:23:01.447Z,100966.63
2022-09-25T01:24:31.108Z,100965.91
2022-09-25T01:25:44.904Z,100967.03
2022-09-25T01:27:11.005Z,100962.69
2022-09-25T01:28:30.420Z,100969.72
2022-09-25T01:29:39.920Z,100968.00
2022-09-25T01:30:46.691Z,100961.00
2022-09-25T01:31:57.277Z,100964.66
2022-09-25T01:33:09.982Z,100964.66
2022-09-25T01:34:18.843Z,100964.66
2022-09-25T01:35:32.928Z,100964.66
2022-09-25T01:36:39.837Z,100966.47
2022-09-25T01:37:46.498Z,100968.31
2022-09-25T01:38:52.638Z,100971.97
2022-09-25T01:40:03.402Z,100966.63
2022-09-25T01:41:11.513Z,100966.63
2022-09-25T01:42:19.697Z,100956.94
2022-09-25T01:43:32.058Z,100959.59
2022-09-25T01:44:41.757Z,100971.13
2022-09-25T01:45:50.059Z,100966.63
2022-09-25T01:46:53.897Z,100974.66
2022-09-25T01:48:00.804Z,100983.63
2022-09-25T01:49:08.734Z,100974.09
2022-09-25T01:50:18.928Z,100972.53
2022-09-25T01:51:27.600Z,100979.84
2022-09-25T01:52:35.711Z,100979.97
2022-09-25T01:53:45.822Z,100983.50
2022-09-25T01:54:55.018Z,100979.97
2022-09-25T01:56:02.440Z,100978.16
2022-09-25T01:57:10.658Z,100988.16
2022-09-25T01:58:16.261Z,100985.47
2022-09-25T01:59:26.046Z,100983.78
2022-09-25T02:00:29.076Z,100979.56
2022-09-25T02:01:36.578Z,100980.44
2022-09-25T02:02:43.264Z,100981.41
2022-09-25T02:03:50.643Z,100983.09
2022-09-25T02:04:56.198Z,100975.09
2022-09-25T02:06:03.177Z,100978.72
2022-09-25T02:07:08.804Z,100976.34
2022-09-25T02:08:16.072Z,100979.03
2022-09-25T02:09:22.235Z,100979.31
2022-09-25T02:10:28.313Z,100977.59
2022-09-25T02:11:33.560Z,100975.94
2022-09-25T02:12:42.039Z,100985.91
2022-09-25T02:13:49.752Z,100975.22
2022-09-25T02:14:55.273Z,100977.03
2022-09-25T02:16:05.347Z,100984.09
2022-09-25T02:17:12.498Z,100982.38
2022-09-25T02:18:35.219Z,100982.38
2022-09-25T02:19:55.747Z,100980.84
2022-09-25T02:21:08.455Z,100978.19
2022-09-25T02:22:15.834Z,100983.38
2022-09-25T02:23:21.859Z,100977.03
2022-09-25T02:24:41.779Z,100980.56
2022-09-25T02:25:48.899Z,100976.22
2022-09-25T02:26:52.273Z,100969.19
2022-09-25T02:27:54.161Z,100981.56
2022-09-25T02:28:59.037Z,100973.69
2022-09-25T02:30:01.369Z,100975.50
2022-09-25T02:31:09.692Z,100979.88
2022-09-25T02:32:18.955Z,100977.34
2022-09-25T02:33:21.686Z,100975.50
2022-09-25T02:34:23.971Z,100983.50
2022-09-25T02:35:26.870Z,100977.50
2022-09-25T02:36:29.638Z,100976.66
2022-09-25T02:37:40.225Z,100977.63
2022-09-25T02:38:41.792Z,100974.81
2022-09-25T02:39:49.814Z,100976.47
2022-09-25T02:40:56.280Z,100977.34
2022-09-25T02:42:20.228Z,100973.69
2022-09-25T02:43:36.227Z,100975.50
2022-09-25T02:44:51.872Z,100984.50
2022-09-25T02:46:03.178Z,100986.19
2022-09-25T02:47:18.218Z,100980.84
2022-09-25T02:48:29.263Z,100983.50
2022-09-25T02:49:42.323Z,100982.66
2022-09-25T02:50:52.619Z,100975.50
2022-09-25T02:52:04.599Z,100978.19
2022-09-25T02:53:14.253Z,100981.69
2022-09-25T02:54:22.053Z,100977.22
2022-09-25T02:55:35.789Z,100981.56
2022-09-25T02:56:41.784Z,100975.38
2022-09-25T02:57:52.456Z,100979.88
2022-09-25T02:58:58.299Z,100978.19
2022-09-25T03:00:07.723Z,100977.03
2022-09-25T03:01:19.471Z,100976.22
2022-09-25T03:02:25.056Z,100973.56
2022-09-25T03:03:29.024Z,100970.16
2022-09-25T03:04:35.069Z,100972.84
2022-09-25T03:05:39.383Z,100971.16
2022-09-25T03:06:42.353Z,100982.81
2022-09-25T03:08:02.583Z,100973.13
2022-09-25T03:09:12.775Z,100976.66
2022-09-25T03:10:16.507Z,100976.47
2022-09-25T03:11:21.155Z,100979.31
2022-09-25T03:12:22.786Z,100984.50
2022-09-25T03:13:31.443Z,100980.16
2022-09-25T03:14:33.205Z,100983.81
2022-09-25T03:15:37.194Z,100979.31
2022-09-25T03:16:46.043Z,100981.81
2022-09-25T03:17:52.111Z,100987.16
2022-09-25T03:18:53.665Z,100981.81
2022-09-25T03:19:56.811Z,100981.81
2022-09-25T03:20:58.809Z,100990.00
2022-09-25T03:22:01.637Z,100987.16
2022-09-25T03:23:04.188Z,100996.19
2022-09-25T03:24:07.194Z,100985.50
2022-09-25T03:25:09.255Z,100989.13
2022-09-25T03:26:13.429Z,100993.63
2022-09-25T03:27:15.261Z,100990.13
2022-09-25T03:28:17.794Z,100985.78
2022-09-25T03:29:21.276Z,100989.44
2022-09-25T03:30:24.099Z,100993.06
2022-09-25T03:31:25.715Z,100992.22
2022-09-25T03:32:28.259Z,100990.41
2022-09-25T03:33:34.561Z,100992.22
2022-09-25T03:34:37.101Z,100988.75
2022-09-25T03:35:39.703Z,100988.88
2022-09-25T03:36:44.522Z,100997.72
2022-09-25T03:37:46.138Z,100992.50
2022-09-25T03:38:51.717Z,100980.00
2022-09-25T03:39:53.252Z,100989.72
2022-09-25T03:40:55.858Z,100988.75
2022-09-25T03:41:57.762Z,100994.06
2022-09-25T03:43:00.642Z,100993.91
2022-09-25T03:44:03.345Z,100989.44
2022-09-25T03:45:10.133Z,100989.44
2022-09-25T03:46:14.346Z,100985.91
2022-09-25T03:47:17.223Z,100989.56
2022-09-25T03:48:18.892Z,100995.91
2022-09-25T03:49:25.853Z,100993.34
2022-09-25T03:50:27.832Z,100995.16
2022-09-25T03:51:32.296Z,100990.97
2022-09-25T03:52:39.132Z,100993.63
2022-09-25T03:53:43.060Z,100987.59
2022-09-25T03:54:44.601Z,100995.63
2022-09-25T03:55:48.826Z,100993.06
2022-09-25T03:56:51.329Z,100991.53
2022-09-25T03:57:53.977Z,100990.84
2022-09-25T03:58:56.050Z,100989.16
2022-09-25T04:00:01.217Z,100994.75
2022-09-25T04:01:06.823Z,100994.75
2022-09-25T04:02:10.599Z,100993.06
2022-09-25T04:03:13.253Z,100999.38
2022-09-25T04:04:15.759Z,100995.03
2022-09-25T04:05:20.108Z,100996.00
2022-09-25T04:06:24.598Z,100996.16
2022-09-25T04:07:26.134Z,100994.59
2022-09-25T04:08:29.762Z,100990.28
2022-09-25T04:09:32.237Z,100989.41
2022-09-25T04:10:38.740Z,100997.53
2022-09-25T04:12:37.332Z,100990.53
2022-09-25T04:13:42.083Z,100993.50
2022-09-25T04:14:46.800Z,100998.09
2022-09-25T04:15:48.974Z,100994.75
2022-09-25T04:16:51.888Z,100989.41
2022-09-25T04:17:54.479Z,100994.03
2022-09-25T04:18:57.215Z,100994.03
2022-09-25T04:19:58.989Z,100995.03
2022-09-25T04:21:05.191Z,100988.00
2022-09-25T04:22:07.081Z,100984.34
2022-09-25T04:23:14.785Z,100985.31
2022-09-25T04:24:34.798Z,100983.50
2022-09-25T04:25:37.370Z,100988.00
2022-09-25T04:26:39.703Z,100991.63
2022-09-25T04:27:43.767Z,100985.59
2022-09-25T04:28:46.033Z,100977.59
2022-09-25T04:29:49.151Z,100990.94
2022-09-25T04:30:51.304Z,100987.59
2022-09-25T04:32:07.737Z,100980.56
2022-09-25T04:33:28.403Z,100981.41
2022-09-25T04:34:30.998Z,100983.22
2022-09-25T04:35:32.998Z,100986.84
2022-09-25T04:36:36.825Z,100983.34
2022-09-25T04:37:38.340Z,100978.84
2022-09-25T04:38:41.140Z,100976.19
2022-09-25T04:39:42.637Z,100980.69
2022-09-25T04:40:46.151Z,100980.69
2022-09-25T04:41:47.859Z,100982.50
2022-09-25T04:42:56.628Z,100980.69
2022-09-25T04:43:58.360Z,100985.16
2022-09-25T04:45:00.864Z,100983.63
2022-09-25T04:46:03.204Z,100983.63
2022-09-25T04:47:05.968Z,100981.94
2022-09-25T04:48:07.715Z,100993.44
2022-09-25T04:49:10.255Z,100982.78
2022-09-25T04:50:12.134Z,100996.94
2022-09-25T04:51:14.671Z,100995.28
2022-09-25T04:52:18.873Z,100995.28
2022-09-25T04:53:21.515Z,101002.44
2022-09-25T04:54:23.071Z,101002.56
2022-09-25T04:55:25.857Z,100992.88
2022-09-25T04:56:27.413Z,101001.72
2022-09-25T04:57:56.806Z,101000.00
2022-09-25T04:58:53.527Z,100994.69
2022-09-25T04:59:55.062Z,100997.47
2022-09-25T05:01:02.576Z,100999.28
2022-09-25T05:02:04.461Z,101000.28
2022-09-25T05:03:07.140Z,100993.25
2022-09-25T05:04:09.144Z,100996.06
2022-09-25T05:05:11.692Z,100997.88
2022-09-25T05:06:13.517Z,100995.19
2022-09-25T05:07:16.076Z,100989.88
2022-09-25T05:08:19.317Z,100991.72
2022-09-25T05:09:22.068Z,100995.19
2022-09-25T05:10:27.203Z,100998.88
2022-09-25T05:11:29.780Z,100996.19
2022-09-25T05:12:31.904Z,100993.53
2022-09-25T05:13:34.401Z,100989.88
2022-09-25T05:14:36.167Z,100996.06
2022-09-25T05:15:38.835Z,100996.91
2022-09-25T05:16:40.447Z,100995.19
2022-09-25T05:17:43.088Z,100996.91
2022-09-25T05:18:44.820Z,100996.06
2022-09-25T05:19:48.103Z,100996.91
2022-09-25T05:20:50.606Z,100998.59
2022-09-25T05:21:54.141Z,100998.59
2022-09-25T05:22:57.056Z,100994.81
2022-09-25T05:24:00.953Z,100996.63
2022-09-25T05:25:02.508Z,100991.28
2022-09-25T05:26:05.076Z,100993.09
2022-09-25T05:27:06.966Z,100991.44
2022-09-25T05:28:11.124Z,100993.25
2022-09-25T05:29:12.729Z,100993.09
2022-09-25T05:30:15.364Z,100991.28
2022-09-25T05:31:18.838Z,101000.88
2022-09-25T05:32:20.474Z,100996.38
2022-09-25T05:33:23.000Z,100990.06
2022-09-25T05:34:24.754Z,100986.56
2022-09-25T05:35:32.555Z,100993.72
2022-09-25T05:36:34.180Z,100988.38
2022-09-25T05:37:36.669Z,100985.72
2022-09-25T05:38:39.900Z,100989.34
2022-09-25T05:39:44.066Z,101005.22
2022-09-25T05:40:45.744Z,100994.69
2022-09-25T05:41:48.503Z,100987.53
2022-09-25T05:42:51.344Z,100991.03
2022-09-25T05:43:55.057Z,100987.41
2022-09-25T05:44:56.708Z,100992.63
2022-09-25T05:46:00.087Z,100994.28
2022-09-25T05:47:02.929Z,100988.94
2022-09-25T05:48:07.270Z,100995.81
2022-09-25T05:49:08.912Z,100994.16
2022-09-25T05:50:14.016Z,100998.50
2022-09-25T05:51:15.655Z,100993.16
2022-09-25T05:52:18.181Z,100998.50
2022-09-25T05:53:20.614Z,101000.19
2022-09-25T05:54:23.194Z,100996.66
2022-09-25T05:55:26.654Z,101001.88
2022-09-25T05:56:29.204Z,101007.22
2022-09-25T05:57:30.907Z,100993.88
2022-09-25T05:58:35.209Z,100997.25
2022-09-25T05:59:36.721Z,100997.25
2022-09-25T06:00:39.260Z,100998.66
2022-09-25T06:01:41.889Z,100998.78
2022-09-25T06:02:43.826Z,101006.78
2022-09-25T06:03:46.746Z,100996.13
2022-09-25T06:04:48.491Z,101001.44
2022-09-25T06:05:51.324Z,101005.81
2022-09-25T06:06:52.891Z,101005.69
2022-09-25T06:07:56.382Z,101011.03
2022-09-25T06:08:57.943Z,101010.75
2022-09-25T06:10:00.498Z,101006.97
2022-09-25T06:11:04.618Z,101008.38
2022-09-25T06:12:07.540Z,101002.59
2022-09-25T06:13:09.279Z,101005.72
2022-09-25T06:14:13.263Z,101008.78
2022-09-25T06:15:14.972Z,101008.50
2022-09-25T06:16:19.300Z,101008.22
2022-09-25T06:17:21.428Z,101010.63
2022-09-25T06:18:25.705Z,101000.66
2022-09-25T06:19:29.180Z,101007.41
2022-09-25T06:20:32.441Z,101001.91
2022-09-25T06:21:34.279Z,101010.50
2022-09-25T06:22:36.752Z,101009.53
2022-09-25T06:23:38.344Z,101007.53
2022-09-25T06:24:40.900Z,101005.84
2022-09-25T06:25:42.860Z,101010.22
2022-09-25T06:26:47.505Z,101010.22
2022-09-25T06:27:51.779Z,101013.84
2022-09-25T06:28:55.344Z,101009.22
2022-09-25T06:29:58.279Z,101015.53
2022-09-25T06:31:02.000Z,101013.72
2022-09-25T06:32:04.059Z,101020.88
2022-09-25T06:33:09.571Z,101018.22
2022-09-25T06:34:12.425Z,101023.72
2022-09-25T06:35:16.110Z,101022.88
2022-09-25T06:36:17.723Z,101021.44
2022-09-25T06:37:20.273Z,101025.09
2022-09-25T06:38:21.990Z,101027.06
2022-09-25T06:39:24.500Z,101025.38
2022-09-25T06:40:27.904Z,101024.69
2022-09-25T06:41:30.694Z,101029.28
2022-09-25T06:42:35.133Z,101025.09
2022-09-25T06:43:37.713Z,101031.56
2022-09-25T06:44:39.246Z,101031.00
2022-09-25T06:45:42.762Z,101024.22
2022-09-25T06:46:45.137Z,101031.66
2022-09-25T06:47:47.784Z,101022.28
2022-09-25T06:48:54.215Z,101026.88
2022-09-25T06:49:55.820Z,101027.88
2022-09-25T06:50:59.135Z,101021.84
2022-09-25T06:52:01.074Z,101026.47
2022-09-25T06:53:03.841Z,101029.25
2022-09-25T06:54:06.623Z,101026.75
2022-09-25T06:55:08.508Z,101029.41
2022-09-25T06:56:11.193Z,101022.25
2022-09-25T06:57:13.200Z,101026.75
2022-09-25T06:58:19.086Z,101034.59
2022-09-25T06:59:20.652Z,101026.59
2022-09-25T07:00:23.181Z,101027.44
2022-09-25T07:01:24.876Z,101024.78
2022-09-25T07:02:44.979Z,101025.63
2022-09-25T07:03:49.072Z,101023.66
2022-09-25T07:04:51.176Z,101031.53
2022-09-25T07:05:53.974Z,101034.88
2022-09-25T07:06:58.394Z,101028.47
2022-09-25T07:08:01.007Z,101036.19
2022-09-25T07:09:03.663Z,101032.41
2022-09-25T07:10:06.369Z,101033.09
2022-09-25T07:11:08.878Z,101035.47
2022-09-25T07:12:11.186Z,101027.19
2022-09-25T07:13:13.748Z,101031.56
2022-09-25T07:14:16.629Z,101039.97
2022-09-25T07:15:19.482Z,101026.50
2022-09-25T07:16:23.506Z,101033.09
2022-09-25T07:17:26.147Z,101029.47
2022-09-25T07:18:29.012Z,101039.00
2022-09-25T07:19:31.509Z,101031.84
2022-09-25T07:20:33.121Z,101035.22
2022-09-25T07:21:35.583Z,101038.59
2022-09-25T07:22:37.104Z,101035.78
2022-09-25T07:23:41.976Z,101038.31
2022-09-25T07:24:44.026Z,101034.66
2022-09-25T07:25:47.683Z,101032.97
2022-09-25T07:26:50.215Z,101032.69
2022-09-25T07:27:51.710Z,101046.72
2022-09-25T07:28:56.276Z,101039.44
2022-09-25T07:29:59.205Z,101043.09
2022-09-25T07:31:11.369Z,101045.91
2022-09-25T07:32:13.978Z,101049.41
2022-09-25T07:33:16.279Z,101049.69
2022-09-25T07:34:18.755Z,101054.16
2022-09-25T07:35:20.373Z,101051.66
2022-09-25T07:36:23.159Z,101055.47
2022-09-25T07:37:24.795Z,101057.28
2022-09-25T07:38:27.257Z,101053.19
2022-09-25T07:39:28.783Z,101062.44
2022-09-25T07:40:33.743Z,101055.72
2022-09-25T07:41:37.412Z,101057.56
2022-09-25T07:42:39.116Z,101060.22
2022-09-25T07:43:43.587Z,101055.84
2022-09-25T07:44:48.751Z,101057.69
2022-09-25T07:45:53.533Z,101056.13
2022-09-25T07:46:56.096Z,101057.97
2022-09-25T07:47:58.254Z,101057.38
2022-09-25T07:49:01.241Z,101047.84
2022-09-25T07:50:02.873Z,101058.78
2022-09-25T07:51:07.283Z,101053.47
2022-09-25T07:52:08.895Z,101057.09
2022-09-25T07:53:11.563Z,101055.41
2022-09-25T07:54:13.315Z,101050.91
2022-09-25T07:55:16.215Z,101050.78
2022-09-25T07:56:18.697Z,101051.63
2022-09-25T07:57:20.534Z,101049.66
2022-09-25T07:58:23.062Z,101049.53
2022-09-25T07:59:24.679Z,101054.72
2022-09-25T08:00:27.194Z,101051.19
2022-09-25T08:01:31.175Z,101047.56
2022-09-25T08:02:35.021Z,101050.09
2022-09-25T08:03:38.284Z,101045.59
2022-09-25T08:04:40.292Z,101044.63
2022-09-25T08:05:42.778Z,101047.28
2022-09-25T08:06:44.272Z,101049.81
2022-09-25T08:07:46.793Z,101051.50
2022-09-25T08:08:48.324Z,101049.69
2022-09-25T08:09:50.907Z,101051.50
2022-09-25T08:10:53.618Z,101044.22
2022-09-25T08:11:56.125Z,101052.06
2022-09-25T08:12:57.695Z,101053.75
2022-09-25T08:14:00.239Z,101054.59
2022-09-25T08:15:02.714Z,101052.78
2022-09-25T08:16:04.988Z,101049.13
2022-09-25T08:17:08.931Z,101052.78
2022-09-25T08:18:11.177Z,101059.66
2022-09-25T08:19:14.029Z,101058.69
2022-09-25T08:20:15.755Z,101057.69
2022-09-25T08:21:20.479Z,101050.41
2022-09-25T08:22:22.041Z,101052.78
2022-09-25T08:23:24.609Z,101056.03
2022-09-25T08:24:26.163Z,101054.75
2022-09-25T08:25:28.663Z,101054.34
2022-09-25T08:26:31.763Z,101056.31
2022-09-25T08:27:39.512Z,101053.75
2022-09-25T08:28:41.829Z,101046.88
2022-09-25T08:29:44.339Z,101051.50
2022-09-25T08:30:47.203Z,101046.44
2022-09-25T08:31:50.076Z,101057.56
2022-09-25T08:32:52.956Z,101045.59
2022-09-25T08:33:55.525Z,101052.34
2022-09-25T08:34:57.045Z,101052.91
2022-09-25T08:36:01.648Z,101058.25
2022-09-25T08:37:03.328Z,101049.53
2022-09-25T08:38:06.069Z,101055.16
2022-09-25T08:39:07.835Z,101050.94
2022-09-25T08:40:18.805Z,101047.59
2022-09-25T08:41:24.368Z,101050.94
2022-09-25T08:42:32.475Z,101046.28
2022-09-25T08:43:40.599Z,101047.84
2022-09-25T08:45:08.979Z,101043.75
2022-09-25T08:46:36.792Z,101043.84
2022-09-25T08:47:57.999Z,101040.63
2022-09-25T08:49:05.978Z,101044.97
2022-09-25T08:50:12.492Z,101043.16
2022-09-25T08:51:14.286Z,101039.31
2022-09-25T08:52:19.564Z,101040.72
2022-09-25T08:53:24.049Z,101044.50
2022-09-25T08:54:28.572Z,101046.28
2022-09-25T08:55:48.070Z,101036.69
2022-09-25T08:56:53.244Z,101037.50
2022-09-25T08:57:55.454Z,101042.25
2022-09-25T08:59:04.572Z,101049.13
2022-09-25T09:00:14.323Z,101049.13
2022-09-25T09:01:20.687Z,101046.63
2022-09-25T09:02:27.475Z,101050.97
2022-09-25T09:03:31.402Z,101049.28
2022-09-25T09:04:42.716Z,101047.59
2022-09-25T09:05:51.480Z,101047.91
2022-09-25T09:07:25.128Z,101046.66
2022-09-25T09:08:29.213Z,101046.13
2022-09-25T09:09:35.443Z,101052.44
2022-09-25T09:10:42.669Z,101048.25
2022-09-25T09:11:52.377Z,101045.69
2022-09-25T09:12:59.505Z,101045.88
2022-09-25T09:14:05.920Z,101051.34
2022-09-25T09:15:18.636Z,101047.28
2022-09-25T09:16:29.702Z,101047.56
2022-09-25T09:17:41.551Z,101042.09
2022-09-25T09:18:44.907Z,101048.28
2022-09-25T09:19:53.004Z,101048.28
2022-09-25T09:20:57.167Z,101044.59
2022-09-25T09:22:08.617Z,101051.34
2022-09-25T09:23:18.830Z,101049.09
2022-09-25T09:24:28.529Z,101050.47
2022-09-25T09:25:40.941Z,101047.53
2022-09-25T09:26:57.635Z,101040.72
2022-09-25T09:28:28.044Z,101041.94
2022-09-25T09:30:00.365Z,101044.31
2022-09-25T09:31:16.869Z,101040.38
2022-09-25T09:32:39.132Z,101042.31
2022-09-25T09:33:52.647Z,101043.22
2022-09-25T09:35:07.645Z,101039.44
2022-09-25T09:36:20.919Z,101033.97
2022-09-25T09:37:31.518Z,101029.75
2022-09-25T09:38:42.851Z,101034.34
2022-09-25T09:39:52.820Z,101040.00
2022-09-25T09:41:08.160Z,101033.13
2022-09-25T09:42:18.509Z,101035.94
2022-09-25T09:43:32.803Z,101040.63
2022-09-25T09:44:50.134Z,101031.91
2022-09-25T09:45:58.897Z,101033.75
2022-09-25T09:47:08.915Z,101029.22
2022-09-25T09:48:18.256Z,101028.09
2022-09-25T09:49:27.073Z,101027.06
2022-09-25T09:50:43.812Z,101028.63
2022-09-25T09:51:52.990Z,101029.19
2022-09-25T09:53:05.958Z,101033.25
2022-09-25T09:54:14.008Z,101032.94
2022-09-25T09:55:23.884Z,101029.16
2022-09-25T09:56:31.465Z,101028.00
2022-09-25T09:57:43.920Z,101027.69
2022-09-25T09:58:50.486Z,101037.25
2022-09-25T10:00:03.633Z,101038.41
2022-09-25T10:01:22.487Z,101028.53
2022-09-25T10:02:37.996Z,101032.91
2022-09-25T10:03:42.137Z,101027.25
2022-09-25T10:04:46.969Z,101032.13
2022-09-25T10:05:54.074Z,101035.75
2022-09-25T10:07:01.415Z,101028.75
2022-09-25T10:08:03.299Z,101033.34
2022-09-25T10:09:06.810Z,101029.94
2022-09-25T10:10:13.102Z,101030.16
2022-09-25T10:11:18.930Z,101019.13
2022-09-25T10:12:31.005Z,101022.47
2022-09-25T10:13:37.160Z,101027.53
2022-09-25T10:14:45.792Z,101032.88
2022-09-25T10:15:51.224Z,101027.53
2022-09-25T10:16:54.831Z,101031.22
2022-09-25T10:18:00.652Z,101025.16
2022-09-25T10:19:06.511Z,101029.16
2022-09-25T10:20:16.437Z,101026.41
2022-09-25T10:21:21.515Z,101030.53
2022-09-25T10:22:28.006Z,101026.63
2022-09-25T10:23:39.523Z,101028.94
2022-09-25T10:24:58.361Z,101022.34
2022-09-25T10:26:00.934Z,101025.34
2022-09-25T10:27:22.345Z,101022.66
2022-09-25T10:28:29.074Z,101021.50
2022-09-25T10:29:32.783Z,101024.72
2022-09-25T10:30:34.370Z,101023.13
2022-09-25T10:31:39.230Z,101012.78
2022-09-25T10:32:45.625Z,101016.84
2022-09-25T10:34:01.003Z,101015.53
2022-09-25T10:35:03.610Z,101025.09
2022-09-25T10:36:07.383Z,101022.44
2022-09-25T10:37:20.087Z,101024.25
2022-09-25T10:38:37.955Z,101016.38
2022-09-25T10:39:45.055Z,101018.69
2022-09-25T10:41:00.220Z,101008.09
2022-09-25T10:42:08.201Z,101022.34
2022-09-25T10:43:20.309Z,101016.66
2022-09-25T10:44:28.403Z,101020.06
2022-09-25T10:45:32.941Z,101017.06
2022-09-25T10:46:54.469Z,101010.56
2022-09-25T10:48:14.786Z,101009.25
2022-09-25T10:49:37.971Z,101018.50
2022-09-25T10:50:40.505Z,101010.81
2022-09-25T10:52:02.825Z,101017.19
2022-09-25T10:53:07.525Z,101020.56
2022-09-25T10:54:13.356Z,101021.25
2022-09-25T10:55:24.723Z,101026.13
2022-09-25T10:56:35.518Z,101014.97
2022-09-25T10:57:39.232Z,101022.50
2022-09-25T10:58:43.221Z,101017.38
2022-09-25T10:59:50.055Z,101010.28
2022-09-25T11:00:55.714Z,101009.47
2022-09-25T11:01:58.413Z,101014.88
2022-09-25T11:03:05.583Z,101011.41
2022-09-25T11:04:16.866Z,101014.75
2022-09-25T11:05:20.882Z,101013.91
2022-09-25T11:06:26.727Z,101005.22
2022-09-25T11:07:28.872Z,101000.47
2022-09-25T11:08:37.866Z,101006.16
2022-09-25T11:09:45.878Z,101004.94
2022-09-25T11:10:52.417Z,101005.44
2022-09-25T11:12:07.646Z,101003.38
2022-09-25T11:13:20.978Z,101007.66
2022-09-25T11:14:32.728Z,101010.13
2022-09-25T11:15:39.072Z,101018.94
2022-09-25T11:16:47.503Z,101011.66
2022-09-25T11:17:52.131Z,101010.63
2022-09-25T11:19:08.924Z,101006.88
2022-09-25T11:20:29.165Z,101010.69
2022-09-25T11:21:35.848Z,101006.50
2022-09-25T11:22:39.594Z,101005.50
2022-09-25T11:23:55.091Z,101009.56
2022-09-25T11:25:07.628Z,101006.41
2022-09-25T11:26:16.038Z,101006.81
2022-09-25T11:27:23.621Z,101006.31
2022-09-25T11:28:33.461Z,101008.53
2022-09-25T11:29:44.578Z,101005.53
2022-09-25T11:30:51.553Z,101011.44
2022-09-25T11:32:02.806Z,100999.72
2022-09-25T11:33:15.171Z,101000.25
2022-09-25T11:34:27.452Z,101002.75
2022-09-25T11:35:44.086Z,101005.63
2022-09-25T11:36:49.063Z,101004.75
2022-09-25T11:38:02.784Z,100997.41
2022-09-25T11:39:31.946Z,100994.72
2022-09-25T11:41:00.816Z,100995.38
2022-09-25T11:42:09.926Z,100993.09
2022-09-25T11:43:15.275Z,100999.88
2022-09-25T11:44:27.436Z,100996.69
2022-09-25T11:45:35.399Z,100991.72
2022-09-25T11:46:48.959Z,100988.72
2022-09-25T11:47:56.695Z,100988.22
2022-09-25T11:49:12.674Z,100982.72
2022-09-25T11:50:17.851Z,100984.41
2022-09-25T11:51:35.832Z,100982.06
2022-09-25T11:52:40.983Z,100975.53
2022-09-25T11:54:03.316Z,100979.91
2022-09-25T11:55:43.540Z,100977.41
2022-09-25T11:56:52.063Z,100978.22
2022-09-25T11:58:04.214Z,100981.22
2022-09-25T11:59:25.928Z,100976.34
2022-09-25T12:00:38.363Z,100981.72
2022-09-25T12:01:46.588Z,100972.81
2022-09-25T12:03:06.407Z,100978.00
2022-09-25T12:04:27.502Z,100976.69
2022-09-25T12:05:47.989Z,100974.72
2022-09-25T12:07:06.765Z,100983.09
2022-09-25T12:08:31.972Z,100971.06
2022-09-25T12:09:52.475Z,100976.44
2022-09-25T12:11:07.779Z,100965.78
2022-09-25T12:12:17.202Z,100968.47
2022-09-25T12:13:27.841Z,100963.13
2022-09-25T12:14:41.259Z,100962.63
2022-09-25T12:15:57.193Z,100962.16
2022-09-25T12:17:06.033Z,100971.22
2022-09-25T12:18:18.390Z,100970.91
2022-09-25T12:19:30.055Z,100969.91
2022-09-25T12:20:39.099Z,100969.72
2022-09-25T12:21:49.878Z,100960.00
2022-09-25T12:23:06.871Z,100967.88
2022-09-25T12:24:23.637Z,100968.22
2022-09-25T12:25:37.573Z,100966.38
2022-09-25T12:26:48.220Z,100958.84
2022-09-25T12:28:00.694Z,100964.91
2022-09-25T12:29:15.837Z,100963.91
2022-09-25T12:30:21.243Z,100964.91
2022-09-25T12:31:46.165Z,100964.53
2022-09-25T12:32:57.841Z,100951.78
2022-09-25T12:34:10.150Z,100946.91
2022-09-25T12:35:26.840Z,100957.97
2022-09-25T12:36:37.626Z,100951.22
2022-09-25T12:37:43.605Z,100958.63
2022-09-25T12:38:55.263Z,100956.41
2022-09-25T12:39:59.107Z,100950.72
2022-09-25T12:41:12.851Z,100943.97
2022-09-25T12:42:23.350Z,100941.63